Aeroporto :
LOGIN :

Iscrizione | Disclaimer

   EN    FR    IT 

 










Sommario :    VFR   VFR Marginale   IFR   IFR Intensivo   IFR Molto Intensivo
Visibilità : 
Base nubi : 
>= 8 km
>= 3000ft
5 / 8 km
1000 / 3000 ft
1500m / 5 km
500 / 1000 ft
800 / 1500m
200 / 500 ft
< 800m
< 200 ft
Simboli :   Temporali  Nebbia  Neve Forte  Precipitazioni Forti  Vento > 20 kt
SIGMETs :   Varie  Temporali  Ghiacco  Turbolenza  Onda orograficha  Ceneri Vulcaniche






- Altitudine del aeroporto : 26 ft
- Codice IATA : BIA


LFKB - Bastia

ULTIMO METAR :
  • 190300Z AUTO 24004KT CAVOK 09/06 Q1022 NOSIG

METARs OBSOLETI :
  • 190230Z AUTO 23006KT CAVOK 10/06 Q1022 TEMPO SHRA SCT030TCU
  • 190200Z AUTO 22008KT CAVOK 10/06 Q1022 TEMPO SHRA SCT030TCU
  • 190130Z AUTO 22008KT CAVOK 10/06 Q1023 TEMPO SHRA SCT030TCU
  • 190100Z AUTO 22007KT CAVOK 10/06 Q1023 TEMPO SHRA SCT030TCU
  • 190030Z AUTO 22006KT CAVOK 10/07 Q1023 TEMPO SHRA SCT030TCU

TAF TAF LFKB
Valido dal 19 a 03 ore il 20 a 03 ore UTC


190200Z 1903/2003 24005KT 9999 FEW020 TX17/1912Z TN07/1905Z
BECMG 1908/1910 33007KT
BECMG 1912/1915 13006KT
BECMG 1919/1921 22004KT
ATIS : +33 4 95 59 19 40



MetMap, La meteo Aeronautica in un colpo d'occhio ! - Copyright ORBIFLY Dicembre 2007 - Disclaimer

ORBIFLY MET'MAP TEAM :

Programmazione e sviluppo : Alexandra Zaïnal
Concezione : Baudouin d'Aumeries
Aiuto per la programmazione : Marc-Olivier Méhu
Supporto tecnico e logistico : Manuel Goepfert
Aiuto per la traduzione : Arnaldo La Scala

Contatto : metmap@orbifly.com




FONTI E CREDITI :

   NOAA